sensor_id;sensor_type;location;lat;lon;timestamp;P1;durP1;ratioP1;P2;durP2;ratioP2
48727;SDS011;34527;45.618;5.130;2023-10-31T00:00:16;3.50;;;2.53;;
48727;SDS011;34527;45.618;5.130;2023-10-31T00:02:42;3.50;;;2.05;;
48727;SDS011;34527;45.618;5.130;2023-10-31T00:05:07;6.90;;;2.10;;
48727;SDS011;34527;45.618;5.130;2023-10-31T00:07:33;4.15;;;2.17;;
48727;SDS011;34527;45.618;5.130;2023-10-31T00:09:59;4.47;;;1.80;;
48727;SDS011;34527;45.618;5.130;2023-10-31T00:12:24;2.53;;;1.75;;
48727;SDS011;34527;45.618;5.130;2023-10-31T00:14:50;6.22;;;1.95;;
48727;SDS011;34527;45.618;5.130;2023-10-31T00:17:15;4.60;;;1.77;;
48727;SDS011;34527;45.618;5.130;2023-10-31T00:19:41;3.42;;;2.15;;
48727;SDS011;34527;45.618;5.130;2023-10-31T00:22:06;2.97;;;2.00;;
48727;SDS011;34527;45.618;5.130;2023-10-31T00:24:32;2.28;;;1.92;;
48727;SDS011;34527;45.618;5.130;2023-10-31T00:26:58;2.53;;;1.95;;
48727;SDS011;34527;45.618;5.130;2023-10-31T00:29:23;5.20;;;2.20;;
48727;SDS011;34527;45.618;5.130;2023-10-31T00:31:49;3.17;;;1.90;;
48727;SDS011;34527;45.618;5.130;2023-10-31T00:34:15;4.18;;;1.80;;
48727;SDS011;34527;45.618;5.130;2023-10-31T00:36:40;2.55;;;1.98;;
48727;SDS011;34527;45.618;5.130;2023-10-31T00:39:06;5.63;;;2.10;;
48727;SDS011;34527;45.618;5.130;2023-10-31T00:41:31;2.95;;;1.98;;
48727;SDS011;34527;45.618;5.130;2023-10-31T00:43:57;2.67;;;2.03;;
48727;SDS011;34527;45.618;5.130;2023-10-31T00:46:23;5.03;;;2.10;;
48727;SDS011;34527;45.618;5.130;2023-10-31T00:48:48;3.67;;;1.58;;
48727;SDS011;34527;45.618;5.130;2023-10-31T00:51:14;2.92;;;1.90;;
48727;SDS011;34527;45.618;5.130;2023-10-31T00:53:40;3.08;;;1.85;;
48727;SDS011;34527;45.618;5.130;2023-10-31T00:56:05;2.50;;;1.42;;
48727;SDS011;34527;45.618;5.130;2023-10-31T00:58:32;4.85;;;1.70;;
48727;SDS011;34527;45.618;5.130;2023-10-31T01:00:57;4.03;;;1.58;;
48727;SDS011;34527;45.618;5.130;2023-10-31T01:03:23;6.53;;;1.70;;
48727;SDS011;34527;45.618;5.130;2023-10-31T01:05:49;2.65;;;1.45;;
48727;SDS011;34527;45.618;5.130;2023-10-31T01:08:14;4.18;;;1.77;;
48727;SDS011;34527;45.618;5.130;2023-10-31T01:10:40;3.80;;;1.65;;
48727;SDS011;34527;45.618;5.130;2023-10-31T01:13:06;3.45;;;1.77;;
48727;SDS011;34527;45.618;5.130;2023-10-31T01:15:31;5.80;;;1.80;;
48727;SDS011;34527;45.618;5.130;2023-10-31T01:17:57;1.40;;;1.30;;
48727;SDS011;34527;45.618;5.130;2023-10-31T01:20:23;4.63;;;1.23;;
48727;SDS011;34527;45.618;5.130;2023-10-31T01:22:48;1.88;;;1.30;;
48727;SDS011;34527;45.618;5.130;2023-10-31T01:25:14;2.85;;;1.10;;
48727;SDS011;34527;45.618;5.130;2023-10-31T01:27:40;3.53;;;1.02;;
48727;SDS011;34527;45.618;5.130;2023-10-31T01:30:07;2.50;;;1.05;;
48727;SDS011;34527;45.618;5.130;2023-10-31T01:32:33;3.88;;;1.08;;
48727;SDS011;34527;45.618;5.130;2023-10-31T01:34:58;2.38;;;1.00;;
48727;SDS011;34527;45.618;5.130;2023-10-31T01:37:24;3.25;;;1.10;;
48727;SDS011;34527;45.618;5.130;2023-10-31T01:39:50;2.95;;;0.90;;
48727;SDS011;34527;45.618;5.130;2023-10-31T01:42:16;2.33;;;1.00;;
48727;SDS011;34527;45.618;5.130;2023-10-31T01:44:42;0.80;;;0.80;;
48727;SDS011;34527;45.618;5.130;2023-10-31T01:47:08;1.60;;;1.00;;
48727;SDS011;34527;45.618;5.130;2023-10-31T01:49:35;4.47;;;1.40;;
48727;SDS011;34527;45.618;5.130;2023-10-31T01:52:01;4.13;;;1.23;;
48727;SDS011;34527;45.618;5.130;2023-10-31T01:54:31;2.85;;;1.20;;
48727;SDS011;34527;45.618;5.130;2023-10-31T01:57:00;2.40;;;1.00;;
48727;SDS011;34527;45.618;5.130;2023-10-31T01:59:27;1.73;;;1.20;;
48727;SDS011;34527;45.618;5.130;2023-10-31T02:01:54;2.83;;;0.90;;
48727;SDS011;34527;45.618;5.130;2023-10-31T02:04:22;2.90;;;1.42;;
48727;SDS011;34527;45.618;5.130;2023-10-31T02:06:49;2.30;;;1.20;;
48727;SDS011;34527;45.618;5.130;2023-10-31T02:09:14;5.90;;;1.38;;
48727;SDS011;34527;45.618;5.130;2023-10-31T02:11:40;1.48;;;1.27;;
48727;SDS011;34527;45.618;5.130;2023-10-31T02:14:06;3.13;;;1.08;;
48727;SDS011;34527;45.618;5.130;2023-10-31T02:16:31;1.67;;;1.08;;
48727;SDS011;34527;45.618;5.130;2023-10-31T02:18:57;3.10;;;1.33;;
48727;SDS011;34527;45.618;5.130;2023-10-31T02:21:23;1.67;;;1.00;;
48727;SDS011;34527;45.618;5.130;2023-10-31T02:24:00;1.75;;;0.80;;
48727;SDS011;34527;45.618;5.130;2023-10-31T02:26:30;2.67;;;0.90;;
48727;SDS011;34527;45.618;5.130;2023-10-31T02:28:57;2.40;;;1.10;;
48727;SDS011;34527;45.618;5.130;2023-10-31T02:31:23;2.85;;;0.95;;
48727;SDS011;34527;45.618;5.130;2023-10-31T02:33:48;2.17;;;0.80;;
48727;SDS011;34527;45.618;5.130;2023-10-31T02:36:14;1.58;;;0.88;;
48727;SDS011;34527;45.618;5.130;2023-10-31T02:38:40;2.13;;;1.15;;
48727;SDS011;34527;45.618;5.130;2023-10-31T02:41:05;1.40;;;0.98;;
48727;SDS011;34527;45.618;5.130;2023-10-31T02:43:31;2.15;;;0.90;;
48727;SDS011;34527;45.618;5.130;2023-10-31T02:45:56;2.22;;;1.00;;
48727;SDS011;34527;45.618;5.130;2023-10-31T02:48:22;0.75;;;0.75;;
48727;SDS011;34527;45.618;5.130;2023-10-31T02:50:49;3.42;;;0.90;;
48727;SDS011;34527;45.618;5.130;2023-10-31T02:53:17;0.75;;;0.70;;
48727;SDS011;34527;45.618;5.130;2023-10-31T02:55:43;1.70;;;0.75;;
48727;SDS011;34527;45.618;5.130;2023-10-31T02:58:09;2.47;;;1.13;;
48727;SDS011;34527;45.618;5.130;2023-10-31T03:00:34;3.15;;;0.80;;
48727;SDS011;34527;45.618;5.130;2023-10-31T03:03:00;1.17;;;0.85;;
48727;SDS011;34527;45.618;5.130;2023-10-31T03:05:25;1.40;;;0.98;;
48727;SDS011;34527;45.618;5.130;2023-10-31T03:07:51;5.50;;;1.05;;
48727;SDS011;34527;45.618;5.130;2023-10-31T03:10:17;2.28;;;0.90;;
48727;SDS011;34527;45.618;5.130;2023-10-31T03:12:45;1.20;;;1.00;;
48727;SDS011;34527;45.618;5.130;2023-10-31T03:15:10;1.85;;;0.88;;
48727;SDS011;34527;45.618;5.130;2023-10-31T03:17:36;3.60;;;0.90;;
48727;SDS011;34527;45.618;5.130;2023-10-31T03:20:02;1.58;;;0.77;;
48727;SDS011;34527;45.618;5.130;2023-10-31T03:22:28;1.55;;;1.17;;
48727;SDS011;34527;45.618;5.130;2023-10-31T03:24:53;2.25;;;1.00;;
48727;SDS011;34527;45.618;5.130;2023-10-31T03:27:19;3.72;;;0.85;;
48727;SDS011;34527;45.618;5.130;2023-10-31T03:29:45;3.00;;;0.75;;
48727;SDS011;34527;45.618;5.130;2023-10-31T03:32:11;2.05;;;0.90;;
48727;SDS011;34527;45.618;5.130;2023-10-31T03:34:37;3.63;;;1.00;;
48727;SDS011;34527;45.618;5.130;2023-10-31T03:37:03;3.67;;;1.35;;
48727;SDS011;34527;45.618;5.130;2023-10-31T03:39:29;3.08;;;0.80;;
48727;SDS011;34527;45.618;5.130;2023-10-31T03:41:55;1.13;;;0.77;;
48727;SDS011;34527;45.618;5.130;2023-10-31T03:44:20;2.92;;;1.00;;
48727;SDS011;34527;45.618;5.130;2023-10-31T03:46:46;3.28;;;1.15;;
48727;SDS011;34527;45.618;5.130;2023-10-31T03:49:12;3.40;;;1.00;;
48727;SDS011;34527;45.618;5.130;2023-10-31T03:51:37;1.98;;;1.00;;
48727;SDS011;34527;45.618;5.130;2023-10-31T03:54:03;4.55;;;0.82;;
48727;SDS011;34527;45.618;5.130;2023-10-31T03:56:28;2.47;;;0.90;;
48727;SDS011;34527;45.618;5.130;2023-10-31T03:58:54;1.88;;;0.98;;
48727;SDS011;34527;45.618;5.130;2023-10-31T04:01:20;2.75;;;0.90;;
48727;SDS011;34527;45.618;5.130;2023-10-31T04:03:45;4.38;;;1.00;;
48727;SDS011;34527;45.618;5.130;2023-10-31T04:06:11;2.70;;;1.00;;
48727;SDS011;34527;45.618;5.130;2023-10-31T04:08:37;1.35;;;0.90;;
48727;SDS011;34527;45.618;5.130;2023-10-31T04:11:02;2.30;;;1.00;;
48727;SDS011;34527;45.618;5.130;2023-10-31T04:13:28;5.32;;;1.10;;
48727;SDS011;34527;45.618;5.130;2023-10-31T04:15:54;2.97;;;0.88;;
48727;SDS011;34527;45.618;5.130;2023-10-31T04:18:19;3.55;;;0.93;;
48727;SDS011;34527;45.618;5.130;2023-10-31T04:20:45;1.73;;;0.80;;
48727;SDS011;34527;45.618;5.130;2023-10-31T04:23:11;1.02;;;0.88;;
48727;SDS011;34527;45.618;5.130;2023-10-31T04:25:37;1.85;;;1.10;;
48727;SDS011;34527;45.618;5.130;2023-10-31T04:28:02;2.35;;;1.13;;
48727;SDS011;34527;45.618;5.130;2023-10-31T04:30:28;2.60;;;1.00;;
48727;SDS011;34527;45.618;5.130;2023-10-31T04:32:54;2.22;;;0.90;;
48727;SDS011;34527;45.618;5.130;2023-10-31T04:35:19;4.55;;;1.33;;
48727;SDS011;34527;45.618;5.130;2023-10-31T04:37:45;1.50;;;0.82;;
48727;SDS011;34527;45.618;5.130;2023-10-31T04:40:11;4.95;;;1.20;;
48727;SDS011;34527;45.618;5.130;2023-10-31T04:42:38;4.32;;;1.02;;
48727;SDS011;34527;45.618;5.130;2023-10-31T04:45:07;1.35;;;0.80;;
48727;SDS011;34527;45.618;5.130;2023-10-31T04:47:33;1.33;;;0.77;;
48727;SDS011;34527;45.618;5.130;2023-10-31T04:49:58;1.35;;;0.90;;
48727;SDS011;34527;45.618;5.130;2023-10-31T04:52:24;3.35;;;1.27;;
48727;SDS011;34527;45.618;5.130;2023-10-31T04:54:51;2.83;;;0.77;;
48727;SDS011;34527;45.618;5.130;2023-10-31T04:57:16;5.43;;;1.00;;
48727;SDS011;34527;45.618;5.130;2023-10-31T04:59:42;2.53;;;1.00;;
48727;SDS011;34527;45.618;5.130;2023-10-31T05:02:08;2.10;;;1.23;;
48727;SDS011;34527;45.618;5.130;2023-10-31T05:04:33;3.05;;;1.02;;
48727;SDS011;34527;45.618;5.130;2023-10-31T05:07:02;2.20;;;1.08;;
48727;SDS011;34527;45.618;5.130;2023-10-31T05:09:28;1.35;;;1.08;;
48727;SDS011;34527;45.618;5.130;2023-10-31T05:11:54;2.03;;;1.63;;
48727;SDS011;34527;45.618;5.130;2023-10-31T05:14:20;5.78;;;1.40;;
48727;SDS011;34527;45.618;5.130;2023-10-31T05:16:45;3.05;;;1.02;;
48727;SDS011;34527;45.618;5.130;2023-10-31T05:19:11;3.10;;;1.20;;
48727;SDS011;34527;45.618;5.130;2023-10-31T05:21:37;1.73;;;1.20;;
48727;SDS011;34527;45.618;5.130;2023-10-31T05:24:02;3.00;;;1.17;;
48727;SDS011;34527;45.618;5.130;2023-10-31T05:26:28;3.35;;;1.23;;
48727;SDS011;34527;45.618;5.130;2023-10-31T05:28:54;2.60;;;0.90;;
48727;SDS011;34527;45.618;5.130;2023-10-31T05:31:22;1.85;;;1.30;;
48727;SDS011;34527;45.618;5.130;2023-10-31T05:33:48;1.52;;;1.20;;
48727;SDS011;34527;45.618;5.130;2023-10-31T05:36:24;1.77;;;1.02;;
48727;SDS011;34527;45.618;5.130;2023-10-31T05:38:50;5.78;;;1.30;;
48727;SDS011;34527;45.618;5.130;2023-10-31T05:41:16;4.68;;;1.20;;
48727;SDS011;34527;45.618;5.130;2023-10-31T05:43:41;2.15;;;1.27;;
48727;SDS011;34527;45.618;5.130;2023-10-31T05:46:07;1.40;;;1.30;;
48727;SDS011;34527;45.618;5.130;2023-10-31T05:48:39;2.13;;;1.33;;
48727;SDS011;34527;45.618;5.130;2023-10-31T05:51:10;2.63;;;1.55;;
48727;SDS011;34527;45.618;5.130;2023-10-31T05:53:41;3.92;;;1.23;;
48727;SDS011;34527;45.618;5.130;2023-10-31T05:56:08;2.70;;;1.20;;
48727;SDS011;34527;45.618;5.130;2023-10-31T05:58:34;2.10;;;1.13;;
48727;SDS011;34527;45.618;5.130;2023-10-31T06:01:00;1.60;;;1.25;;
48727;SDS011;34527;45.618;5.130;2023-10-31T06:03:25;1.88;;;1.50;;
48727;SDS011;34527;45.618;5.130;2023-10-31T06:05:51;3.33;;;1.35;;
48727;SDS011;34527;45.618;5.130;2023-10-31T06:08:16;2.00;;;1.42;;
48727;SDS011;34527;45.618;5.130;2023-10-31T06:10:42;4.07;;;1.90;;
48727;SDS011;34527;45.618;5.130;2023-10-31T06:13:07;2.20;;;1.30;;
48727;SDS011;34527;45.618;5.130;2023-10-31T06:15:33;2.55;;;1.25;;
48727;SDS011;34527;45.618;5.130;2023-10-31T06:17:59;2.15;;;1.40;;
48727;SDS011;34527;45.618;5.130;2023-10-31T06:20:24;5.20;;;1.15;;
48727;SDS011;34527;45.618;5.130;2023-10-31T06:22:50;2.05;;;1.23;;
48727;SDS011;34527;45.618;5.130;2023-10-31T06:25:15;1.92;;;1.20;;
48727;SDS011;34527;45.618;5.130;2023-10-31T06:27:41;2.63;;;1.15;;
48727;SDS011;34527;45.618;5.130;2023-10-31T06:30:06;3.28;;;1.13;;
48727;SDS011;34527;45.618;5.130;2023-10-31T06:32:32;3.95;;;1.33;;
48727;SDS011;34527;45.618;5.130;2023-10-31T06:34:58;2.15;;;1.20;;
48727;SDS011;34527;45.618;5.130;2023-10-31T06:37:24;2.60;;;1.55;;
48727;SDS011;34527;45.618;5.130;2023-10-31T06:39:49;1.20;;;1.10;;
48727;SDS011;34527;45.618;5.130;2023-10-31T06:42:15;1.80;;;1.13;;
48727;SDS011;34527;45.618;5.130;2023-10-31T06:44:40;0.90;;;0.80;;
48727;SDS011;34527;45.618;5.130;2023-10-31T06:47:06;1.20;;;0.77;;
48727;SDS011;34527;45.618;5.130;2023-10-31T06:49:31;1.98;;;1.05;;
48727;SDS011;34527;45.618;5.130;2023-10-31T06:51:57;0.80;;;0.80;;
48727;SDS011;34527;45.618;5.130;2023-10-31T06:54:23;1.67;;;0.85;;
48727;SDS011;34527;45.618;5.130;2023-10-31T06:56:49;2.50;;;0.90;;
48727;SDS011;34527;45.618;5.130;2023-10-31T06:59:14;2.03;;;0.90;;
48727;SDS011;34527;45.618;5.130;2023-10-31T07:01:40;1.15;;;0.80;;
48727;SDS011;34527;45.618;5.130;2023-10-31T07:04:05;3.38;;;0.93;;
48727;SDS011;34527;45.618;5.130;2023-10-31T07:06:31;2.25;;;0.80;;
48727;SDS011;34527;45.618;5.130;2023-10-31T07:08:57;4.47;;;0.75;;
48727;SDS011;34527;45.618;5.130;2023-10-31T07:11:22;3.03;;;0.80;;
48727;SDS011;34527;45.618;5.130;2023-10-31T07:13:48;4.22;;;0.90;;
48727;SDS011;34527;45.618;5.130;2023-10-31T07:16:13;1.98;;;0.80;;
48727;SDS011;34527;45.618;5.130;2023-10-31T07:18:39;1.77;;;0.65;;
48727;SDS011;34527;45.618;5.130;2023-10-31T07:21:05;3.05;;;1.10;;
48727;SDS011;34527;45.618;5.130;2023-10-31T07:23:31;1.88;;;0.80;;
48727;SDS011;34527;45.618;5.130;2023-10-31T07:25:56;1.55;;;0.90;;
48727;SDS011;34527;45.618;5.130;2023-10-31T07:28:22;1.80;;;0.80;;
48727;SDS011;34527;45.618;5.130;2023-10-31T07:30:48;1.92;;;0.80;;
48727;SDS011;34527;45.618;5.130;2023-10-31T07:33:15;0.77;;;0.65;;
48727;SDS011;34527;45.618;5.130;2023-10-31T07:35:40;3.03;;;1.00;;
48727;SDS011;34527;45.618;5.130;2023-10-31T07:38:06;1.48;;;0.70;;
48727;SDS011;34527;45.618;5.130;2023-10-31T07:40:32;1.58;;;0.80;;
48727;SDS011;34527;45.618;5.130;2023-10-31T07:42:58;1.77;;;1.10;;
48727;SDS011;34527;45.618;5.130;2023-10-31T07:45:24;1.52;;;0.80;;
48727;SDS011;34527;45.618;5.130;2023-10-31T07:47:49;2.05;;;0.73;;
48727;SDS011;34527;45.618;5.130;2023-10-31T07:50:15;1.35;;;1.02;;
48727;SDS011;34527;45.618;5.130;2023-10-31T07:52:40;2.63;;;0.80;;
48727;SDS011;34527;45.618;5.130;2023-10-31T07:55:08;2.55;;;0.70;;
48727;SDS011;34527;45.618;5.130;2023-10-31T07:57:36;1.65;;;0.90;;
48727;SDS011;34527;45.618;5.130;2023-10-31T08:00:02;2.63;;;0.85;;
48727;SDS011;34527;45.618;5.130;2023-10-31T08:02:28;2.08;;;0.80;;
48727;SDS011;34527;45.618;5.130;2023-10-31T08:04:53;1.98;;;1.00;;
48727;SDS011;34527;45.618;5.130;2023-10-31T08:07:19;1.40;;;0.82;;
48727;SDS011;34527;45.618;5.130;2023-10-31T08:09:44;0.70;;;0.70;;
48727;SDS011;34527;45.618;5.130;2023-10-31T08:12:10;1.23;;;0.80;;
48727;SDS011;34527;45.618;5.130;2023-10-31T08:14:35;2.50;;;0.90;;
48727;SDS011;34527;45.618;5.130;2023-10-31T08:17:01;1.33;;;0.88;;
48727;SDS011;34527;45.618;5.130;2023-10-31T08:19:27;1.40;;;0.80;;
48727;SDS011;34527;45.618;5.130;2023-10-31T08:21:52;1.27;;;0.77;;
48727;SDS011;34527;45.618;5.130;2023-10-31T08:24:18;1.77;;;0.90;;
48727;SDS011;34527;45.618;5.130;2023-10-31T08:26:44;3.35;;;1.15;;
48727;SDS011;34527;45.618;5.130;2023-10-31T08:29:09;2.38;;;0.90;;
48727;SDS011;34527;45.618;5.130;2023-10-31T08:31:35;2.13;;;0.82;;
48727;SDS011;34527;45.618;5.130;2023-10-31T08:34:00;1.08;;;0.90;;
48727;SDS011;34527;45.618;5.130;2023-10-31T08:36:26;1.27;;;0.80;;
48727;SDS011;34527;45.618;5.130;2023-10-31T08:38:51;0.85;;;0.70;;
48727;SDS011;34527;45.618;5.130;2023-10-31T08:41:17;2.63;;;1.00;;
48727;SDS011;34527;45.618;5.130;2023-10-31T08:43:45;3.85;;;0.93;;
48727;SDS011;34527;45.618;5.130;2023-10-31T08:46:11;0.95;;;0.75;;
48727;SDS011;34527;45.618;5.130;2023-10-31T08:48:37;1.23;;;0.80;;
48727;SDS011;34527;45.618;5.130;2023-10-31T08:51:03;1.40;;;0.65;;
48727;SDS011;34527;45.618;5.130;2023-10-31T08:53:29;1.85;;;0.73;;
48727;SDS011;34527;45.618;5.130;2023-10-31T08:55:54;8.85;;;1.08;;
48727;SDS011;34527;45.618;5.130;2023-10-31T08:58:21;3.70;;;1.08;;
48727;SDS011;34527;45.618;5.130;2023-10-31T09:00:47;0.85;;;0.75;;
48727;SDS011;34527;45.618;5.130;2023-10-31T09:03:12;1.73;;;0.80;;
48727;SDS011;34527;45.618;5.130;2023-10-31T09:05:39;1.52;;;0.73;;
48727;SDS011;34527;45.618;5.130;2023-10-31T09:08:05;1.60;;;1.15;;
48727;SDS011;34527;45.618;5.130;2023-10-31T09:10:31;1.17;;;0.70;;
48727;SDS011;34527;45.618;5.130;2023-10-31T09:12:58;2.85;;;0.85;;
48727;SDS011;34527;45.618;5.130;2023-10-31T09:15:24;1.05;;;0.80;;
48727;SDS011;34527;45.618;5.130;2023-10-31T09:17:49;2.75;;;1.10;;
48727;SDS011;34527;45.618;5.130;2023-10-31T09:20:15;1.15;;;0.70;;
48727;SDS011;34527;45.618;5.130;2023-10-31T09:22:40;1.35;;;0.70;;
48727;SDS011;34527;45.618;5.130;2023-10-31T09:25:06;1.00;;;0.70;;
48727;SDS011;34527;45.618;5.130;2023-10-31T09:27:32;1.20;;;0.73;;
48727;SDS011;34527;45.618;5.130;2023-10-31T09:29:57;3.22;;;1.00;;
48727;SDS011;34527;45.618;5.130;2023-10-31T09:32:23;2.40;;;1.10;;
48727;SDS011;34527;45.618;5.130;2023-10-31T09:34:49;2.40;;;0.90;;
48727;SDS011;34527;45.618;5.130;2023-10-31T09:37:14;1.17;;;0.70;;
48727;SDS011;34527;45.618;5.130;2023-10-31T09:39:40;1.48;;;0.93;;
48727;SDS011;34527;45.618;5.130;2023-10-31T09:42:05;2.03;;;0.60;;
48727;SDS011;34527;45.618;5.130;2023-10-31T09:44:32;3.00;;;0.85;;
48727;SDS011;34527;45.618;5.130;2023-10-31T09:46:58;0.70;;;0.70;;
48727;SDS011;34527;45.618;5.130;2023-10-31T09:49:26;0.70;;;0.50;;
48727;SDS011;34527;45.618;5.130;2023-10-31T09:51:53;1.27;;;0.45;;
48727;SDS011;34527;45.618;5.130;2023-10-31T09:54:18;2.00;;;0.73;;
48727;SDS011;34527;45.618;5.130;2023-10-31T09:56:45;0.60;;;0.52;;
48727;SDS011;34527;45.618;5.130;2023-10-31T09:59:10;2.80;;;0.85;;
48727;SDS011;34527;45.618;5.130;2023-10-31T10:01:38;2.50;;;0.75;;
48727;SDS011;34527;45.618;5.130;2023-10-31T10:04:04;3.22;;;0.68;;
48727;SDS011;34527;45.618;5.130;2023-10-31T10:06:30;1.77;;;0.70;;
48727;SDS011;34527;45.618;5.130;2023-10-31T10:08:57;3.08;;;0.70;;
48727;SDS011;34527;45.618;5.130;2023-10-31T10:11:22;1.05;;;0.60;;
48727;SDS011;34527;45.618;5.130;2023-10-31T10:13:51;0.50;;;0.50;;
48727;SDS011;34527;45.618;5.130;2023-10-31T10:16:30;1.00;;;0.80;;
48727;SDS011;34527;45.618;5.130;2023-10-31T10:18:56;0.57;;;0.50;;
48727;SDS011;34527;45.618;5.130;2023-10-31T10:21:22;1.35;;;0.55;;
48727;SDS011;34527;45.618;5.130;2023-10-31T10:23:48;1.58;;;0.60;;
48727;SDS011;34527;45.618;5.130;2023-10-31T10:26:17;1.65;;;0.80;;
48727;SDS011;34527;45.618;5.130;2023-10-31T10:28:46;1.10;;;0.43;;
48727;SDS011;34527;45.618;5.130;2023-10-31T10:31:13;0.70;;;0.50;;
48727;SDS011;34527;45.618;5.130;2023-10-31T10:33:40;1.40;;;0.47;;
48727;SDS011;34527;45.618;5.130;2023-10-31T10:36:06;0.65;;;0.47;;
48727;SDS011;34527;45.618;5.130;2023-10-31T10:38:35;0.85;;;0.55;;
48727;SDS011;34527;45.618;5.130;2023-10-31T10:41:01;1.13;;;0.40;;
48727;SDS011;34527;45.618;5.130;2023-10-31T10:43:28;1.55;;;0.45;;
48727;SDS011;34527;45.618;5.130;2023-10-31T10:46:01;2.42;;;0.60;;
48727;SDS011;34527;45.618;5.130;2023-10-31T10:48:30;1.17;;;0.50;;
48727;SDS011;34527;45.618;5.130;2023-10-31T10:51:10;1.63;;;0.60;;
48727;SDS011;34527;45.618;5.130;2023-10-31T10:53:48;1.38;;;0.65;;
48727;SDS011;34527;45.618;5.130;2023-10-31T10:56:19;3.55;;;0.70;;
48727;SDS011;34527;45.618;5.130;2023-10-31T11:01:37;0.68;;;0.55;;
48727;SDS011;34527;45.618;5.130;2023-10-31T11:04:03;6.15;;;0.80;;
48727;SDS011;34527;45.618;5.130;2023-10-31T11:06:31;1.25;;;0.55;;
48727;SDS011;34527;45.618;5.130;2023-10-31T11:09:00;1.08;;;0.57;;
48727;SDS011;34527;45.618;5.130;2023-10-31T11:11:26;1.58;;;0.70;;
48727;SDS011;34527;45.618;5.130;2023-10-31T11:13:52;0.93;;;0.57;;
48727;SDS011;34527;45.618;5.130;2023-10-31T11:19:14;0.52;;;0.50;;
48727;SDS011;34527;45.618;5.130;2023-10-31T11:22:02;6.65;;;0.55;;
48727;SDS011;34527;45.618;5.130;2023-10-31T11:24:34;0.80;;;0.50;;
48727;SDS011;34527;45.618;5.130;2023-10-31T11:27:03;1.58;;;0.52;;
48727;SDS011;34527;45.618;5.130;2023-10-31T11:29:31;0.50;;;0.50;;
48727;SDS011;34527;45.618;5.130;2023-10-31T11:31:57;2.10;;;0.68;;
48727;SDS011;34527;45.618;5.130;2023-10-31T11:34:23;1.50;;;0.70;;
48727;SDS011;34527;45.618;5.130;2023-10-31T11:36:52;2.30;;;0.55;;
48727;SDS011;34527;45.618;5.130;2023-10-31T11:39:18;0.60;;;0.60;;
48727;SDS011;34527;45.618;5.130;2023-10-31T11:41:53;1.48;;;0.70;;
48727;SDS011;34527;45.618;5.130;2023-10-31T11:44:23;3.28;;;1.00;;
48727;SDS011;34527;45.618;5.130;2023-10-31T11:46:51;1.58;;;0.60;;
48727;SDS011;34527;45.618;5.130;2023-10-31T11:49:18;2.70;;;0.60;;
48727;SDS011;34527;45.618;5.130;2023-10-31T11:52:13;3.13;;;0.47;;
48727;SDS011;34527;45.618;5.130;2023-10-31T11:54:40;1.50;;;0.60;;
48727;SDS011;34527;45.618;5.130;2023-10-31T11:57:06;1.52;;;0.68;;
48727;SDS011;34527;45.618;5.130;2023-10-31T11:59:38;2.08;;;0.95;;
48727;SDS011;34527;45.618;5.130;2023-10-31T12:02:14;1.23;;;0.60;;
48727;SDS011;34527;45.618;5.130;2023-10-31T12:04:40;1.23;;;0.70;;
48727;SDS011;34527;45.618;5.130;2023-10-31T12:07:06;2.17;;;0.80;;
48727;SDS011;34527;45.618;5.130;2023-10-31T12:09:33;1.33;;;0.57;;
48727;SDS011;34527;45.618;5.130;2023-10-31T12:12:10;3.10;;;0.70;;
48727;SDS011;34527;45.618;5.130;2023-10-31T12:14:35;1.65;;;0.70;;
48727;SDS011;34527;45.618;5.130;2023-10-31T12:17:03;1.30;;;0.60;;
48727;SDS011;34527;45.618;5.130;2023-10-31T12:19:30;1.15;;;0.63;;
48727;SDS011;34527;45.618;5.130;2023-10-31T12:21:55;1.10;;;0.60;;
48727;SDS011;34527;45.618;5.130;2023-10-31T12:24:21;0.95;;;0.50;;
48727;SDS011;34527;45.618;5.130;2023-10-31T12:26:47;0.85;;;0.50;;
48727;SDS011;34527;45.618;5.130;2023-10-31T12:29:17;1.27;;;0.77;;
48727;SDS011;34527;45.618;5.130;2023-10-31T12:31:45;1.00;;;0.60;;
48727;SDS011;34527;45.618;5.130;2023-10-31T12:34:17;2.30;;;0.60;;
48727;SDS011;34527;45.618;5.130;2023-10-31T12:36:45;0.95;;;0.40;;
48727;SDS011;34527;45.618;5.130;2023-10-31T12:39:12;0.95;;;0.45;;
48727;SDS011;34527;45.618;5.130;2023-10-31T12:41:38;1.75;;;0.47;;
48727;SDS011;34527;45.618;5.130;2023-10-31T12:44:05;1.77;;;0.60;;
48727;SDS011;34527;45.618;5.130;2023-10-31T12:46:34;0.75;;;0.32;;
48727;SDS011;34527;45.618;5.130;2023-10-31T12:49:00;2.35;;;0.70;;
48727;SDS011;34527;45.618;5.130;2023-10-31T12:51:26;1.42;;;0.60;;
48727;SDS011;34527;45.618;5.130;2023-10-31T12:53:52;1.15;;;0.80;;
48727;SDS011;34527;45.618;5.130;2023-10-31T12:59:06;0.60;;;0.60;;
48727;SDS011;34527;45.618;5.130;2023-10-31T13:01:36;1.38;;;0.70;;
48727;SDS011;34527;45.618;5.130;2023-10-31T13:04:05;1.55;;;0.68;;
48727;SDS011;34527;45.618;5.130;2023-10-31T13:06:31;2.05;;;0.65;;
48727;SDS011;34527;45.618;5.130;2023-10-31T13:08:58;2.17;;;0.70;;
48727;SDS011;34527;45.618;5.130;2023-10-31T13:11:24;0.90;;;0.85;;
48727;SDS011;34527;45.618;5.130;2023-10-31T13:13:53;1.85;;;0.60;;
48727;SDS011;34527;45.618;5.130;2023-10-31T13:16:19;1.50;;;0.60;;
48727;SDS011;34527;45.618;5.130;2023-10-31T13:18:45;0.77;;;0.60;;
48727;SDS011;34527;45.618;5.130;2023-10-31T13:21:11;1.63;;;0.70;;
48727;SDS011;34527;45.618;5.130;2023-10-31T13:23:39;1.75;;;1.48;;
48727;SDS011;34527;45.618;5.130;2023-10-31T13:26:08;1.90;;;1.20;;
48727;SDS011;34527;45.618;5.130;2023-10-31T13:28:34;1.45;;;1.25;;
48727;SDS011;34527;45.618;5.130;2023-10-31T13:31:00;2.40;;;1.00;;
48727;SDS011;34527;45.618;5.130;2023-10-31T13:33:25;1.35;;;0.60;;
48727;SDS011;34527;45.618;5.130;2023-10-31T13:35:51;2.15;;;0.65;;
48727;SDS011;34527;45.618;5.130;2023-10-31T13:38:16;0.28;;;0.28;;
48727;SDS011;34527;45.618;5.130;2023-10-31T13:40:43;0.95;;;0.52;;
48727;SDS011;34527;45.618;5.130;2023-10-31T13:43:08;1.65;;;0.70;;
48727;SDS011;34527;45.618;5.130;2023-10-31T13:45:34;1.98;;;0.77;;
48727;SDS011;34527;45.618;5.130;2023-10-31T13:48:00;1.45;;;0.70;;
48727;SDS011;34527;45.618;5.130;2023-10-31T13:50:26;0.98;;;0.80;;
48727;SDS011;34527;45.618;5.130;2023-10-31T13:52:51;2.17;;;0.73;;
48727;SDS011;34527;45.618;5.130;2023-10-31T13:55:17;4.75;;;0.73;;
48727;SDS011;34527;45.618;5.130;2023-10-31T13:57:43;0.80;;;0.80;;
48727;SDS011;34527;45.618;5.130;2023-10-31T14:00:09;2.70;;;0.70;;
48727;SDS011;34527;45.618;5.130;2023-10-31T14:02:35;0.73;;;0.60;;
48727;SDS011;34527;45.618;5.130;2023-10-31T14:05:01;2.30;;;0.70;;
48727;SDS011;34527;45.618;5.130;2023-10-31T14:07:29;1.83;;;1.20;;
48727;SDS011;34527;45.618;5.130;2023-10-31T14:09:54;2.03;;;0.95;;
48727;SDS011;34527;45.618;5.130;2023-10-31T14:12:22;1.65;;;0.90;;
48727;SDS011;34527;45.618;5.130;2023-10-31T14:14:48;1.58;;;0.70;;
48727;SDS011;34527;45.618;5.130;2023-10-31T14:17:16;1.20;;;1.10;;
48727;SDS011;34527;45.618;5.130;2023-10-31T14:19:42;3.22;;;1.75;;
48727;SDS011;34527;45.618;5.130;2023-10-31T14:22:09;2.90;;;1.85;;
48727;SDS011;34527;45.618;5.130;2023-10-31T14:24:34;3.65;;;2.60;;
48727;SDS011;34527;45.618;5.130;2023-10-31T14:27:00;9.43;;;5.90;;
48727;SDS011;34527;45.618;5.130;2023-10-31T14:29:26;7.63;;;4.05;;
48727;SDS011;34527;45.618;5.130;2023-10-31T14:31:52;2.38;;;1.98;;
48727;SDS011;34527;45.618;5.130;2023-10-31T14:34:19;1.30;;;1.20;;
48727;SDS011;34527;45.618;5.130;2023-10-31T14:36:46;1.92;;;1.20;;
48727;SDS011;34527;45.618;5.130;2023-10-31T14:39:11;2.00;;;1.33;;
48727;SDS011;34527;45.618;5.130;2023-10-31T14:41:37;1.55;;;0.80;;
48727;SDS011;34527;45.618;5.130;2023-10-31T14:44:03;1.73;;;0.80;;
48727;SDS011;34527;45.618;5.130;2023-10-31T14:46:30;1.15;;;1.00;;
48727;SDS011;34527;45.618;5.130;2023-10-31T14:48:55;1.25;;;0.95;;
48727;SDS011;34527;45.618;5.130;2023-10-31T14:51:21;1.35;;;0.65;;